sensor_id;sensor_type;location;lat;lon;timestamp;temperature;humidity
41116;DHT22;26861;51.824;4.682;2023-04-30T00:11:42;19.10;83.40
41116;DHT22;26861;51.824;4.682;2023-04-30T00:14:08;19.40;83.50
41116;DHT22;26861;51.824;4.682;2023-04-30T00:16:34;19.30;83.50
41116;DHT22;26861;51.824;4.682;2023-04-30T00:19:00;19.20;83.40
41116;DHT22;26861;51.824;4.682;2023-04-30T00:21:25;19.00;83.20
41116;DHT22;26861;51.824;4.682;2023-04-30T00:33:35;18.90;82.60
41116;DHT22;26861;51.824;4.682;2023-04-30T00:36:01;19.20;82.80
41116;DHT22;26861;51.824;4.682;2023-04-30T00:48:11;18.80;83.10
41116;DHT22;26861;51.824;4.682;2023-04-30T00:50:37;19.00;83.60
41116;DHT22;26861;51.824;4.682;2023-04-30T00:53:04;19.20;83.50
41116;DHT22;26861;51.824;4.682;2023-04-30T00:57:58;18.80;75.40
41116;DHT22;26861;51.824;4.682;2023-04-30T01:00:24;18.70;83.60
41116;DHT22;26861;51.824;4.682;2023-04-30T01:02:51;18.90;62.00
41116;DHT22;26861;51.824;4.682;2023-04-30T01:05:17;18.70;71.90
41116;DHT22;26861;51.824;4.682;2023-04-30T01:07:44;18.70;83.70
41116;DHT22;26861;51.824;4.682;2023-04-30T01:10:13;18.80;51.40
41116;DHT22;26861;51.824;4.682;2023-04-30T01:13:01;18.90;83.90
41116;DHT22;26861;51.824;4.682;2023-04-30T01:15:42;19.00;83.90
41116;DHT22;26861;51.824;4.682;2023-04-30T01:18:20;19.00;84.10
41116;DHT22;26861;51.824;4.682;2023-04-30T01:21:05;19.00;70.50
41116;DHT22;26861;51.824;4.682;2023-04-30T01:23:46;18.60;83.90
41116;DHT22;26861;51.824;4.682;2023-04-30T01:28:59;19.00;84.30
41116;DHT22;26861;51.824;4.682;2023-04-30T01:31:27;18.80;57.70
41116;DHT22;26861;51.824;4.682;2023-04-30T01:33:53;18.30;82.00
41116;DHT22;26861;51.824;4.682;2023-04-30T01:36:36;18.40;47.00
41116;DHT22;26861;51.824;4.682;2023-04-30T01:42:20;18.60;84.50
41116;DHT22;26861;51.824;4.682;2023-04-30T01:47:51;18.80;84.70
41116;DHT22;26861;51.824;4.682;2023-04-30T01:53:09;18.10;84.50
41116;DHT22;26861;51.824;4.682;2023-04-30T01:55:42;18.50;51.80
41116;DHT22;26861;51.824;4.682;2023-04-30T01:58:11;18.60;52.10
41116;DHT22;26861;51.824;4.682;2023-04-30T02:00:37;18.50;84.80
41116;DHT22;26861;51.824;4.682;2023-04-30T02:05:30;18.50;85.30
41116;DHT22;26861;51.824;4.682;2023-04-30T02:07:56;18.70;84.90
41116;DHT22;26861;51.824;4.682;2023-04-30T02:10:23;18.80;85.20
41116;DHT22;26861;51.824;4.682;2023-04-30T02:15:16;18.30;85.10
41116;DHT22;26861;51.824;4.682;2023-04-30T02:22:35;18.40;51.40
41116;DHT22;26861;51.824;4.682;2023-04-30T02:25:01;18.30;68.10
41116;DHT22;26861;51.824;4.682;2023-04-30T02:27:29;18.40;52.40
41116;DHT22;26861;51.824;4.682;2023-04-30T02:29:55;18.70;76.20
41116;DHT22;26861;51.824;4.682;2023-04-30T02:42:06;18.50;85.30
41116;DHT22;26861;51.824;4.682;2023-04-30T02:44:32;18.40;85.20
41116;DHT22;26861;51.824;4.682;2023-04-30T02:49:23;18.10;84.60
41116;DHT22;26861;51.824;4.682;2023-04-30T02:51:49;17.90;85.00
41116;DHT22;26861;51.824;4.682;2023-04-30T02:54:16;18.20;85.20
41116;DHT22;26861;51.824;4.682;2023-04-30T02:56:41;18.10;85.40
41116;DHT22;26861;51.824;4.682;2023-04-30T02:59:09;18.40;54.90
41116;DHT22;26861;51.824;4.682;2023-04-30T03:06:29;18.30;56.20
41116;DHT22;26861;51.824;4.682;2023-04-30T03:08:55;18.20;85.00
41116;DHT22;26861;51.824;4.682;2023-04-30T03:16:17;18.10;85.40
41116;DHT22;26861;51.824;4.682;2023-04-30T03:21:09;18.10;85.30
41116;DHT22;26861;51.824;4.682;2023-04-30T03:23:35;18.10;65.80
41116;DHT22;26861;51.824;4.682;2023-04-30T03:47:55;18.00;85.40
41116;DHT22;26861;51.824;4.682;2023-04-30T03:55:13;18.10;80.20
41116;DHT22;26861;51.824;4.682;2023-04-30T03:57:39;17.70;84.90
41116;DHT22;26861;51.824;4.682;2023-04-30T04:00:06;17.70;70.00
41116;DHT22;26861;51.824;4.682;2023-04-30T04:02:35;17.90;75.60
41116;DHT22;26861;51.824;4.682;2023-04-30T04:05:02;18.00;63.80
41116;DHT22;26861;51.824;4.682;2023-04-30T04:07:27;18.10;85.90
41116;DHT22;26861;51.824;4.682;2023-04-30T04:26:56;17.80;85.80
41116;DHT22;26861;51.824;4.682;2023-04-30T04:31:49;18.00;85.50
41116;DHT22;26861;51.824;4.682;2023-04-30T04:36:41;17.90;86.20
41116;DHT22;26861;51.824;4.682;2023-04-30T04:39:07;17.60;84.10
41116;DHT22;26861;51.824;4.682;2023-04-30T04:41:34;17.80;57.30
41116;DHT22;26861;51.824;4.682;2023-04-30T04:44:02;17.30;85.70
41116;DHT22;26861;51.824;4.682;2023-04-30T04:46:30;17.80;65.50
41116;DHT22;26861;51.824;4.682;2023-04-30T04:48:56;17.30;85.80
41116;DHT22;26861;51.824;4.682;2023-04-30T04:51:22;17.50;85.80
41116;DHT22;26861;51.824;4.682;2023-04-30T04:53:47;17.70;86.00
41116;DHT22;26861;51.824;4.682;2023-04-30T04:58:41;17.10;85.80
41116;DHT22;26861;51.824;4.682;2023-04-30T05:01:06;17.70;86.30
41116;DHT22;26861;51.824;4.682;2023-04-30T05:03:34;17.30;58.10
41116;DHT22;26861;51.824;4.682;2023-04-30T05:06:02;17.70;86.30
41116;DHT22;26861;51.824;4.682;2023-04-30T05:08:28;17.40;85.90
41116;DHT22;26861;51.824;4.682;2023-04-30T05:10:54;17.50;86.10
41116;DHT22;26861;51.824;4.682;2023-04-30T05:15:50;17.60;53.70
41116;DHT22;26861;51.824;4.682;2023-04-30T05:18:16;17.70;86.50
41116;DHT22;26861;51.824;4.682;2023-04-30T05:20:42;17.50;86.10
41116;DHT22;26861;51.824;4.682;2023-04-30T05:23:08;17.60;86.40
41116;DHT22;26861;51.824;4.682;2023-04-30T05:25:34;17.50;85.50
41116;DHT22;26861;51.824;4.682;2023-04-30T05:30:28;17.70;57.50
41116;DHT22;26861;51.824;4.682;2023-04-30T05:35:21;17.80;80.60
41116;DHT22;26861;51.824;4.682;2023-04-30T05:37:47;17.60;86.10
41116;DHT22;26861;51.824;4.682;2023-04-30T05:40:13;17.60;86.50
41116;DHT22;26861;51.824;4.682;2023-04-30T05:42:40;17.70;51.70
41116;DHT22;26861;51.824;4.682;2023-04-30T05:45:09;17.60;86.70
41116;DHT22;26861;51.824;4.682;2023-04-30T05:50:03;17.40;83.80
41116;DHT22;26861;51.824;4.682;2023-04-30T05:57:23;17.50;87.00
41116;DHT22;26861;51.824;4.682;2023-04-30T06:02:16;17.80;87.30
41116;DHT22;26861;51.824;4.682;2023-04-30T06:07:08;17.70;87.50
41116;DHT22;26861;51.824;4.682;2023-04-30T06:09:34;17.60;87.60
41116;DHT22;26861;51.824;4.682;2023-04-30T06:12:00;17.90;87.60
41116;DHT22;26861;51.824;4.682;2023-04-30T06:16:53;17.50;79.60
41116;DHT22;26861;51.824;4.682;2023-04-30T06:19:19;17.40;87.40
41116;DHT22;26861;51.824;4.682;2023-04-30T06:21:45;17.80;87.70
41116;DHT22;26861;51.824;4.682;2023-04-30T06:24:11;17.40;87.60
41116;DHT22;26861;51.824;4.682;2023-04-30T06:29:04;17.40;88.00
41116;DHT22;26861;51.824;4.682;2023-04-30T06:31:30;17.50;88.10
41116;DHT22;26861;51.824;4.682;2023-04-30T06:33:56;17.70;88.30
41116;DHT22;26861;51.824;4.682;2023-04-30T06:36:22;17.40;88.20
41116;DHT22;26861;51.824;4.682;2023-04-30T06:38:48;17.10;88.20
41116;DHT22;26861;51.824;4.682;2023-04-30T06:41:14;17.70;88.50
41116;DHT22;26861;51.824;4.682;2023-04-30T06:43:42;17.10;58.00
41116;DHT22;26861;51.824;4.682;2023-04-30T06:46:08;17.80;88.50
41116;DHT22;26861;51.824;4.682;2023-04-30T06:53:27;17.80;88.20
41116;DHT22;26861;51.824;4.682;2023-04-30T06:55:53;17.60;88.00
41116;DHT22;26861;51.824;4.682;2023-04-30T06:58:20;17.60;88.60
41116;DHT22;26861;51.824;4.682;2023-04-30T07:00:46;17.90;86.10
41116;DHT22;26861;51.824;4.682;2023-04-30T07:05:38;17.40;88.80
41116;DHT22;26861;51.824;4.682;2023-04-30T07:08:05;17.70;89.10
41116;DHT22;26861;51.824;4.682;2023-04-30T07:12:57;17.90;71.80
41116;DHT22;26861;51.824;4.682;2023-04-30T07:15:24;18.00;84.20
41116;DHT22;26861;51.824;4.682;2023-04-30T07:17:50;17.70;89.20
41116;DHT22;26861;51.824;4.682;2023-04-30T07:25:13;17.80;89.20
41116;DHT22;26861;51.824;4.682;2023-04-30T07:27:40;18.20;89.40
41116;DHT22;26861;51.824;4.682;2023-04-30T07:30:07;17.70;60.40
41116;DHT22;26861;51.824;4.682;2023-04-30T07:32:37;17.80;89.20
41116;DHT22;26861;51.824;4.682;2023-04-30T07:35:06;17.90;86.20
41116;DHT22;26861;51.824;4.682;2023-04-30T07:39:58;18.00;71.40
41116;DHT22;26861;51.824;4.682;2023-04-30T07:42:24;18.10;89.60
41116;DHT22;26861;51.824;4.682;2023-04-30T07:44:50;18.00;89.50
41116;DHT22;26861;51.824;4.682;2023-04-30T07:47:17;18.40;85.00
41116;DHT22;26861;51.824;4.682;2023-04-30T07:49:48;18.10;89.50
41116;DHT22;26861;51.824;4.682;2023-04-30T07:52:14;18.10;89.50
41116;DHT22;26861;51.824;4.682;2023-04-30T07:54:39;17.80;86.40
41116;DHT22;26861;51.824;4.682;2023-04-30T07:57:05;18.30;70.40
41116;DHT22;26861;51.824;4.682;2023-04-30T07:59:31;18.10;89.80
41116;DHT22;26861;51.824;4.682;2023-04-30T08:09:16;18.50;90.20
41116;DHT22;26861;51.824;4.682;2023-04-30T08:11:41;18.30;90.10
41116;DHT22;26861;51.824;4.682;2023-04-30T08:14:07;18.60;75.70
41116;DHT22;26861;51.824;4.682;2023-04-30T08:23:55;18.40;90.00
41116;DHT22;26861;51.824;4.682;2023-04-30T08:28:47;18.60;89.60
41116;DHT22;26861;51.824;4.682;2023-04-30T08:31:13;18.60;79.10
41116;DHT22;26861;51.824;4.682;2023-04-30T08:36:05;18.50;80.80
41116;DHT22;26861;51.824;4.682;2023-04-30T08:41:12;18.50;59.20
41116;DHT22;26861;51.824;4.682;2023-04-30T08:43:39;18.60;90.20
41116;DHT22;26861;51.824;4.682;2023-04-30T08:46:05;18.50;71.60
41116;DHT22;26861;51.824;4.682;2023-04-30T08:48:31;18.70;73.30
41116;DHT22;26861;51.824;4.682;2023-04-30T08:51:01;18.80;79.40
41116;DHT22;26861;51.824;4.682;2023-04-30T08:58:19;18.80;69.10
41116;DHT22;26861;51.824;4.682;2023-04-30T09:00:45;19.00;77.30
41116;DHT22;26861;51.824;4.682;2023-04-30T09:08:03;19.20;58.90
41116;DHT22;26861;51.824;4.682;2023-04-30T09:10:31;19.40;57.20
41116;DHT22;26861;51.824;4.682;2023-04-30T09:13:08;19.10;88.60
41116;DHT22;26861;51.824;4.682;2023-04-30T09:15:35;19.30;88.80
41116;DHT22;26861;51.824;4.682;2023-04-30T09:18:12;19.20;68.70
41116;DHT22;26861;51.824;4.682;2023-04-30T09:20:59;19.60;88.80
41116;DHT22;26861;51.824;4.682;2023-04-30T09:23:30;19.70;88.90
41116;DHT22;26861;51.824;4.682;2023-04-30T09:25:55;19.70;84.20
41116;DHT22;26861;51.824;4.682;2023-04-30T09:28:22;19.60;62.50
41116;DHT22;26861;51.824;4.682;2023-04-30T09:30:50;19.70;88.80
41116;DHT22;26861;51.824;4.682;2023-04-30T09:35:43;20.00;87.50
41116;DHT22;26861;51.824;4.682;2023-04-30T09:38:29;19.60;88.00
41116;DHT22;26861;51.824;4.682;2023-04-30T09:41:00;19.70;78.00
41116;DHT22;26861;51.824;4.682;2023-04-30T09:43:27;20.10;88.80
41116;DHT22;26861;51.824;4.682;2023-04-30T09:48:22;20.00;52.20
41116;DHT22;26861;51.824;4.682;2023-04-30T09:50:51;20.40;89.10
41116;DHT22;26861;51.824;4.682;2023-04-30T09:53:18;20.10;69.80
41116;DHT22;26861;51.824;4.682;2023-04-30T09:55:48;20.60;88.70
41116;DHT22;26861;51.824;4.682;2023-04-30T09:58:14;19.70;56.90
41116;DHT22;26861;51.824;4.682;2023-04-30T10:03:08;20.40;58.70
41116;DHT22;26861;51.824;4.682;2023-04-30T10:05:36;20.80;88.60
41116;DHT22;26861;51.824;4.682;2023-04-30T10:08:07;20.70;55.80
41116;DHT22;26861;51.824;4.682;2023-04-30T10:10:36;20.50;57.80
41116;DHT22;26861;51.824;4.682;2023-04-30T10:13:03;20.80;88.40
41116;DHT22;26861;51.824;4.682;2023-04-30T10:15:35;21.10;88.50
41116;DHT22;26861;51.824;4.682;2023-04-30T10:18:20;20.40;51.60
41116;DHT22;26861;51.824;4.682;2023-04-30T10:20:49;20.70;87.80
41116;DHT22;26861;51.824;4.682;2023-04-30T10:23:18;20.80;56.10
41116;DHT22;26861;51.824;4.682;2023-04-30T10:25:43;20.90;87.70
41116;DHT22;26861;51.824;4.682;2023-04-30T10:28:09;21.40;82.90
41116;DHT22;26861;51.824;4.682;2023-04-30T10:33:19;21.30;87.80
41116;DHT22;26861;51.824;4.682;2023-04-30T10:36:03;21.70;88.00
41116;DHT22;26861;51.824;4.682;2023-04-30T10:40:58;21.50;54.90
41116;DHT22;26861;51.824;4.682;2023-04-30T10:43:29;21.80;87.60
41116;DHT22;26861;51.824;4.682;2023-04-30T10:45:56;21.70;54.90
41116;DHT22;26861;51.824;4.682;2023-04-30T10:48:23;21.50;87.20
41116;DHT22;26861;51.824;4.682;2023-04-30T10:50:59;21.50;87.00
41116;DHT22;26861;51.824;4.682;2023-04-30T10:53:29;21.80;62.50
41116;DHT22;26861;51.824;4.682;2023-04-30T10:55:59;21.80;55.20
41116;DHT22;26861;51.824;4.682;2023-04-30T10:58:45;22.00;79.90
41116;DHT22;26861;51.824;4.682;2023-04-30T11:01:15;21.60;83.40
41116;DHT22;26861;51.824;4.682;2023-04-30T11:04:06;21.80;86.60
41116;DHT22;26861;51.824;4.682;2023-04-30T11:09:17;22.00;86.30
41116;DHT22;26861;51.824;4.682;2023-04-30T11:11:44;22.30;53.70
41116;DHT22;26861;51.824;4.682;2023-04-30T11:14:11;22.40;53.80
41116;DHT22;26861;51.824;4.682;2023-04-30T11:19:09;22.50;50.10
41116;DHT22;26861;51.824;4.682;2023-04-30T11:24:48;23.00;56.40
41116;DHT22;26861;51.824;4.682;2023-04-30T11:27:22;22.80;53.10
41116;DHT22;26861;51.824;4.682;2023-04-30T11:29:48;22.50;85.00
41116;DHT22;26861;51.824;4.682;2023-04-30T11:32:15;22.50;84.60
41116;DHT22;26861;51.824;4.682;2023-04-30T11:34:42;22.90;52.30
41116;DHT22;26861;51.824;4.682;2023-04-30T11:37:11;23.00;51.90
41116;DHT22;26861;51.824;4.682;2023-04-30T11:42:06;23.10;51.70
41116;DHT22;26861;51.824;4.682;2023-04-30T11:47:00;23.30;51.60
41116;DHT22;26861;51.824;4.682;2023-04-30T11:49:26;23.70;84.00
41116;DHT22;26861;51.824;4.682;2023-04-30T11:51:51;23.60;83.80
41116;DHT22;26861;51.824;4.682;2023-04-30T11:54:18;23.80;72.60
41116;DHT22;26861;51.824;4.682;2023-04-30T11:56:47;23.60;72.40
41116;DHT22;26861;51.824;4.682;2023-04-30T11:59:14;23.70;60.90
41116;DHT22;26861;51.824;4.682;2023-04-30T12:01:41;24.00;83.50
41116;DHT22;26861;51.824;4.682;2023-04-30T12:04:07;24.00;83.50
41116;DHT22;26861;51.824;4.682;2023-04-30T12:09:03;23.70;83.00
41116;DHT22;26861;51.824;4.682;2023-04-30T12:11:32;24.00;66.50
41116;DHT22;26861;51.824;4.682;2023-04-30T12:14:03;23.90;82.50
41116;DHT22;26861;51.824;4.682;2023-04-30T12:16:47;24.00;81.60
41116;DHT22;26861;51.824;4.682;2023-04-30T12:19:20;23.70;64.80
41116;DHT22;26861;51.824;4.682;2023-04-30T12:21:47;24.10;50.40
41116;DHT22;26861;51.824;4.682;2023-04-30T12:24:15;24.10;49.60
41116;DHT22;26861;51.824;4.682;2023-04-30T12:26:42;23.80;81.80
41116;DHT22;26861;51.824;4.682;2023-04-30T12:29:08;24.60;56.60
41116;DHT22;26861;51.824;4.682;2023-04-30T12:31:36;24.50;51.00
41116;DHT22;26861;51.824;4.682;2023-04-30T12:34:04;24.50;83.30
41116;DHT22;26861;51.824;4.682;2023-04-30T12:36:31;24.50;83.20
41116;DHT22;26861;51.824;4.682;2023-04-30T12:39:10;24.10;47.30
41116;DHT22;26861;51.824;4.682;2023-04-30T12:41:44;23.80;83.00
41116;DHT22;26861;51.824;4.682;2023-04-30T12:44:17;23.90;83.20
41116;DHT22;26861;51.824;4.682;2023-04-30T12:46:44;24.50;82.80
41116;DHT22;26861;51.824;4.682;2023-04-30T12:51:38;24.10;49.60
41116;DHT22;26861;51.824;4.682;2023-04-30T12:54:05;24.40;54.00
41116;DHT22;26861;51.824;4.682;2023-04-30T13:03:50;24.60;83.30
41116;DHT22;26861;51.824;4.682;2023-04-30T13:06:16;24.80;59.20
41116;DHT22;26861;51.824;4.682;2023-04-30T13:08:43;24.10;83.00
41116;DHT22;26861;51.824;4.682;2023-04-30T13:16:01;24.60;82.60
41116;DHT22;26861;51.824;4.682;2023-04-30T13:18:31;25.30;83.20
41116;DHT22;26861;51.824;4.682;2023-04-30T13:23:22;24.80;82.60
41116;DHT22;26861;51.824;4.682;2023-04-30T13:25:48;25.20;83.10
41116;DHT22;26861;51.824;4.682;2023-04-30T13:28:13;25.30;82.90
41116;DHT22;26861;51.824;4.682;2023-04-30T13:30:40;24.90;82.40
41116;DHT22;26861;51.824;4.682;2023-04-30T13:33:06;25.20;83.00
41116;DHT22;26861;51.824;4.682;2023-04-30T13:38:00;25.00;56.80
41116;DHT22;26861;51.824;4.682;2023-04-30T13:42:52;25.00;78.90
41116;DHT22;26861;51.824;4.682;2023-04-30T13:45:18;25.10;82.20
41116;DHT22;26861;51.824;4.682;2023-04-30T13:47:44;25.00;82.10
41116;DHT22;26861;51.824;4.682;2023-04-30T13:50:09;25.20;54.30
41116;DHT22;26861;51.824;4.682;2023-04-30T13:55:02;25.10;81.90
41116;DHT22;26861;51.824;4.682;2023-04-30T14:02:24;25.30;60.00
41116;DHT22;26861;51.824;4.682;2023-04-30T14:21:55;25.10;76.40
41116;DHT22;26861;51.824;4.682;2023-04-30T14:24:21;25.30;74.60
41116;DHT22;26861;51.824;4.682;2023-04-30T14:34:06;25.20;80.30
41116;DHT22;26861;51.824;4.682;2023-04-30T14:36:35;25.60;48.10
41116;DHT22;26861;51.824;4.682;2023-04-30T14:41:36;25.60;48.00
41116;DHT22;26861;51.824;4.682;2023-04-30T14:44:02;26.00;80.20
41116;DHT22;26861;51.824;4.682;2023-04-30T14:46:29;25.60;46.70
41116;DHT22;26861;51.824;4.682;2023-04-30T14:48:56;25.80;80.30
41116;DHT22;26861;51.824;4.682;2023-04-30T14:51:22;25.70;80.10
41116;DHT22;26861;51.824;4.682;2023-04-30T14:53:47;25.90;63.80
41116;DHT22;26861;51.824;4.682;2023-04-30T14:58:40;25.80;80.20
41116;DHT22;26861;51.824;4.682;2023-04-30T15:01:05;25.20;74.40
41116;DHT22;26861;51.824;4.682;2023-04-30T15:18:07;25.60;75.30
41116;DHT22;26861;51.824;4.682;2023-04-30T15:20:34;25.70;61.10
41116;DHT22;26861;51.824;4.682;2023-04-30T15:23:00;25.10;80.70
41116;DHT22;26861;51.824;4.682;2023-04-30T15:25:26;25.40;80.70
41116;DHT22;26861;51.824;4.682;2023-04-30T15:27:51;24.90;54.70
41116;DHT22;26861;51.824;4.682;2023-04-30T15:30:17;25.20;47.20
41116;DHT22;26861;51.824;4.682;2023-04-30T15:37:35;25.00;48.70
41116;DHT22;26861;51.824;4.682;2023-04-30T15:42:30;24.60;81.10
41116;DHT22;26861;51.824;4.682;2023-04-30T15:44:56;24.50;81.70
41116;DHT22;26861;51.824;4.682;2023-04-30T15:47:23;24.70;81.70
41116;DHT22;26861;51.824;4.682;2023-04-30T15:52:16;24.30;81.20
41116;DHT22;26861;51.824;4.682;2023-04-30T15:54:42;24.90;81.60
41116;DHT22;26861;51.824;4.682;2023-04-30T16:01:59;24.30;79.30
41116;DHT22;26861;51.824;4.682;2023-04-30T16:11:45;24.10;82.00
41116;DHT22;26861;51.824;4.682;2023-04-30T16:21:32;24.50;69.20
41116;DHT22;26861;51.824;4.682;2023-04-30T16:23:58;24.60;82.30
41116;DHT22;26861;51.824;4.682;2023-04-30T16:26:23;24.10;70.70
41116;DHT22;26861;51.824;4.682;2023-04-30T16:28:49;24.20;70.40
41116;DHT22;26861;51.824;4.682;2023-04-30T16:33:42;24.20;81.80
41116;DHT22;26861;51.824;4.682;2023-04-30T16:36:09;24.00;81.60
41116;DHT22;26861;51.824;4.682;2023-04-30T16:38:35;24.10;78.80
41116;DHT22;26861;51.824;4.682;2023-04-30T16:41:02;24.40;82.20
41116;DHT22;26861;51.824;4.682;2023-04-30T16:45:54;24.50;82.40
41116;DHT22;26861;51.824;4.682;2023-04-30T16:48:20;24.40;82.40
41116;DHT22;26861;51.824;4.682;2023-04-30T16:50:46;23.80;82.30
41116;DHT22;26861;51.824;4.682;2023-04-30T16:53:12;24.00;82.30
41116;DHT22;26861;51.824;4.682;2023-04-30T16:58:04;23.80;82.30
41116;DHT22;26861;51.824;4.682;2023-04-30T17:00:30;23.80;82.40
41116;DHT22;26861;51.824;4.682;2023-04-30T17:02:56;23.50;82.60
41116;DHT22;26861;51.824;4.682;2023-04-30T17:05:22;24.00;82.70
41116;DHT22;26861;51.824;4.682;2023-04-30T17:07:48;23.30;82.60
41116;DHT22;26861;51.824;4.682;2023-04-30T17:10:14;23.50;82.90
41116;DHT22;26861;51.824;4.682;2023-04-30T17:12:41;23.40;61.90
41116;DHT22;26861;51.824;4.682;2023-04-30T17:15:07;23.70;60.10
41116;DHT22;26861;51.824;4.682;2023-04-30T17:17:34;23.20;85.50
41116;DHT22;26861;51.824;4.682;2023-04-30T17:29:43;23.10;80.10
41116;DHT22;26861;51.824;4.682;2023-04-30T17:37:02;23.10;86.00
41116;DHT22;26861;51.824;4.682;2023-04-30T17:39:28;23.20;86.30
41116;DHT22;26861;51.824;4.682;2023-04-30T17:41:57;22.80;78.00
41116;DHT22;26861;51.824;4.682;2023-04-30T17:49:15;23.00;62.80
41116;DHT22;26861;51.824;4.682;2023-04-30T17:54:08;23.30;86.80
41116;DHT22;26861;51.824;4.682;2023-04-30T18:03:54;23.10;86.50
41116;DHT22;26861;51.824;4.682;2023-04-30T18:06:20;22.90;86.60
41116;DHT22;26861;51.824;4.682;2023-04-30T18:13:37;23.30;70.10
41116;DHT22;26861;51.824;4.682;2023-04-30T18:16:03;23.10;67.30
41116;DHT22;26861;51.824;4.682;2023-04-30T18:18:29;22.80;75.60
41116;DHT22;26861;51.824;4.682;2023-04-30T18:25:47;23.00;62.30
41116;DHT22;26861;51.824;4.682;2023-04-30T18:30:40;22.90;61.90
41116;DHT22;26861;51.824;4.682;2023-04-30T18:33:06;22.80;84.60
41116;DHT22;26861;51.824;4.682;2023-04-30T18:35:32;22.30;84.20
41116;DHT22;26861;51.824;4.682;2023-04-30T18:37:59;22.50;84.60
41116;DHT22;26861;51.824;4.682;2023-04-30T18:42:51;22.90;84.90
41116;DHT22;26861;51.824;4.682;2023-04-30T18:45:17;22.50;83.90
41116;DHT22;26861;51.824;4.682;2023-04-30T18:47:42;23.00;84.10
41116;DHT22;26861;51.824;4.682;2023-04-30T18:50:08;22.40;83.70
41116;DHT22;26861;51.824;4.682;2023-04-30T18:55:04;22.20;83.10
41116;DHT22;26861;51.824;4.682;2023-04-30T18:57:32;23.00;77.60
41116;DHT22;26861;51.824;4.682;2023-04-30T18:59:58;22.20;83.00
41116;DHT22;26861;51.824;4.682;2023-04-30T19:02:24;22.30;83.00
41116;DHT22;26861;51.824;4.682;2023-04-30T19:07:17;22.50;83.10
41116;DHT22;26861;51.824;4.682;2023-04-30T19:09:43;22.30;83.00
41116;DHT22;26861;51.824;4.682;2023-04-30T19:12:10;22.60;50.60
41116;DHT22;26861;51.824;4.682;2023-04-30T19:14:36;22.30;82.90
41116;DHT22;26861;51.824;4.682;2023-04-30T19:17:02;22.70;74.30
41116;DHT22;26861;51.824;4.682;2023-04-30T19:19:28;22.80;83.20
41116;DHT22;26861;51.824;4.682;2023-04-30T19:21:54;22.20;55.90
41116;DHT22;26861;51.824;4.682;2023-04-30T19:24:20;22.30;76.80
41116;DHT22;26861;51.824;4.682;2023-04-30T19:29:15;22.80;83.20
41116;DHT22;26861;51.824;4.682;2023-04-30T19:31:40;22.20;82.80
41116;DHT22;26861;51.824;4.682;2023-04-30T19:34:06;22.60;83.10
41116;DHT22;26861;51.824;4.682;2023-04-30T19:36:32;22.20;82.80
41116;DHT22;26861;51.824;4.682;2023-04-30T19:38:57;22.50;75.80
41116;DHT22;26861;51.824;4.682;2023-04-30T19:43:50;22.70;82.80
41116;DHT22;26861;51.824;4.682;2023-04-30T19:48:43;22.60;60.40
41116;DHT22;26861;51.824;4.682;2023-04-30T19:51:10;22.10;79.40
41116;DHT22;26861;51.824;4.682;2023-04-30T19:58:28;22.60;80.00
41116;DHT22;26861;51.824;4.682;2023-04-30T20:00:53;22.60;78.50
41116;DHT22;26861;51.824;4.682;2023-04-30T20:03:20;22.30;82.50
41116;DHT22;26861;51.824;4.682;2023-04-30T20:08:12;22.10;63.20
41116;DHT22;26861;51.824;4.682;2023-04-30T20:13:05;22.20;48.60
41116;DHT22;26861;51.824;4.682;2023-04-30T20:17:58;22.20;48.70
41116;DHT22;26861;51.824;4.682;2023-04-30T20:22:52;22.30;82.30
41116;DHT22;26861;51.824;4.682;2023-04-30T20:25:19;22.30;82.30
41116;DHT22;26861;51.824;4.682;2023-04-30T20:27:46;21.80;82.10
41116;DHT22;26861;51.824;4.682;2023-04-30T20:30:12;21.80;81.80
41116;DHT22;26861;51.824;4.682;2023-04-30T20:32:38;22.20;82.30
41116;DHT22;26861;51.824;4.682;2023-04-30T20:35:06;21.90;81.90
41116;DHT22;26861;51.824;4.682;2023-04-30T20:37:33;22.00;77.20
41116;DHT22;26861;51.824;4.682;2023-04-30T20:42:26;22.30;81.90
41116;DHT22;26861;51.824;4.682;2023-04-30T20:44:53;22.40;82.70
41116;DHT22;26861;51.824;4.682;2023-04-30T20:47:20;21.60;74.00
41116;DHT22;26861;51.824;4.682;2023-04-30T20:49:46;21.60;81.60
41116;DHT22;26861;51.824;4.682;2023-04-30T20:52:12;21.50;81.70
41116;DHT22;26861;51.824;4.682;2023-04-30T20:54:39;22.20;48.40
41116;DHT22;26861;51.824;4.682;2023-04-30T20:57:06;21.50;68.00
41116;DHT22;26861;51.824;4.682;2023-04-30T20:59:34;21.80;82.00
41116;DHT22;26861;51.824;4.682;2023-04-30T21:02:00;22.20;82.60
41116;DHT22;26861;51.824;4.682;2023-04-30T21:04:26;22.20;68.40
41116;DHT22;26861;51.824;4.682;2023-04-30T21:09:20;21.60;76.50
41116;DHT22;26861;51.824;4.682;2023-04-30T21:11:46;21.60;81.90
41116;DHT22;26861;51.824;4.682;2023-04-30T21:14:12;21.80;82.10
41116;DHT22;26861;51.824;4.682;2023-04-30T21:16:38;22.20;82.40
41116;DHT22;26861;51.824;4.682;2023-04-30T21:21:32;21.80;81.80
41116;DHT22;26861;51.824;4.682;2023-04-30T21:36:14;21.70;82.20
41116;DHT22;26861;51.824;4.682;2023-04-30T21:38:41;21.60;82.10
41116;DHT22;26861;51.824;4.682;2023-04-30T21:41:14;21.50;82.10
41116;DHT22;26861;51.824;4.682;2023-04-30T21:43:40;21.60;82.20
41116;DHT22;26861;51.824;4.682;2023-04-30T21:46:06;21.60;82.20
41116;DHT22;26861;51.824;4.682;2023-04-30T21:48:32;21.60;66.90
41116;DHT22;26861;51.824;4.682;2023-04-30T21:50:59;21.80;82.40
41116;DHT22;26861;51.824;4.682;2023-04-30T21:55:50;21.80;82.40
41116;DHT22;26861;51.824;4.682;2023-04-30T21:58:16;21.50;82.20
41116;DHT22;26861;51.824;4.682;2023-04-30T22:00:42;21.30;82.00
41116;DHT22;26861;51.824;4.682;2023-04-30T22:03:08;21.50;82.20
41116;DHT22;26861;51.824;4.682;2023-04-30T22:05:35;21.50;82.10
41116;DHT22;26861;51.824;4.682;2023-04-30T22:15:21;21.80;50.50
41116;DHT22;26861;51.824;4.682;2023-04-30T22:20:13;21.50;52.50
41116;DHT22;26861;51.824;4.682;2023-04-30T22:39:43;21.20;62.00
41116;DHT22;26861;51.824;4.682;2023-04-30T22:47:02;21.40;79.30
41116;DHT22;26861;51.824;4.682;2023-04-30T22:49:28;21.60;82.20
41116;DHT22;26861;51.824;4.682;2023-04-30T22:51:54;21.30;82.20
41116;DHT22;26861;51.824;4.682;2023-04-30T22:56:48;20.90;76.20
41116;DHT22;26861;51.824;4.682;2023-04-30T22:59:14;21.50;82.20
41116;DHT22;26861;51.824;4.682;2023-04-30T23:01:41;21.40;82.10
41116;DHT22;26861;51.824;4.682;2023-04-30T23:04:07;21.20;56.30
41116;DHT22;26861;51.824;4.682;2023-04-30T23:06:34;21.30;82.20
41116;DHT22;26861;51.824;4.682;2023-04-30T23:09:00;21.50;61.00
41116;DHT22;26861;51.824;4.682;2023-04-30T23:21:11;21.20;82.30
41116;DHT22;26861;51.824;4.682;2023-04-30T23:23:37;21.30;82.70
41116;DHT22;26861;51.824;4.682;2023-04-30T23:26:02;21.20;82.30
41116;DHT22;26861;51.824;4.682;2023-04-30T23:28:28;20.90;82.10